Time,TemperatureF,DewpointF,PressureIn,WindDirection,WindDirectionDegrees,WindSpeedMPH,WindSpeedGustMPH,Humidity,HourlyPrecipIn,Conditions,Clouds,dailyrainin,SolarRadiationWatts/m^2,SoftwareType,DateUTC
2013-10-13 00:03:00,44.0,42.0,-100.00,West,263,6.0,15.0,93,0.02,,,0.09,0.000000,,2013-10-13 05:03:00,
2013-10-13 00:43:00,43.0,41.0,-100.00,West,272,5.0,14.0,92,0.00,,,0.09,0.000000,,2013-10-13 05:43:00,
2013-10-13 00:52:00,43.0,41.0,-100.00,West,272,5.0,14.0,92,0.00,,,0.09,0.000000,,2013-10-13 05:52:00,
2013-10-13 01:02:00,43.0,41.0,-100.00,West,272,5.0,14.0,92,0.00,,,0.09,0.000000,,2013-10-13 06:02:00,
2013-10-13 01:22:00,43.0,41.0,-100.00,West,280,6.0,12.0,92,0.00,,,0.09,0.000000,,2013-10-13 06:22:00,
2013-10-13 01:32:00,43.0,41.0,-100.00,West,280,6.0,12.0,92,0.00,,,0.09,0.000000,,2013-10-13 06:32:00,
2013-10-13 01:42:00,43.0,41.0,-100.00,West,280,6.0,12.0,92,0.00,,,0.09,0.000000,,2013-10-13 06:42:00,
2013-10-13 01:52:00,43.0,41.0,-100.00,West,280,6.0,12.0,92,0.00,,,0.09,0.000000,,2013-10-13 06:52:00,
2013-10-13 02:02:00,43.0,41.0,-100.00,West,280,6.0,12.0,92,0.00,,,0.09,0.000000,,2013-10-13 07:02:00,
2013-10-13 02:42:00,42.0,40.0,-100.00,WNW,289,4.0,11.0,92,0.03,,,0.07,0.000000,,2013-10-13 07:42:00,
2013-10-13 02:52:00,42.0,40.0,-100.00,WNW,289,4.0,11.0,92,0.03,,,0.07,0.000000,,2013-10-13 07:52:00,
2013-10-13 03:02:00,42.0,40.0,-100.00,WNW,289,4.0,11.0,92,0.03,,,0.07,0.000000,,2013-10-13 08:02:00,
2013-10-13 03:22:00,41.0,39.0,-100.00,WNW,289,4.0,12.0,94,0.05,,,0.12,0.000000,,2013-10-13 08:22:00,
2013-10-13 03:32:00,41.0,39.0,-100.00,WNW,289,4.0,12.0,94,0.05,,,0.12,0.000000,,2013-10-13 08:32:00,
2013-10-13 03:42:00,41.0,39.0,-100.00,WNW,289,4.0,12.0,94,0.05,,,0.12,0.000000,,2013-10-13 08:42:00,
2013-10-13 03:52:00,41.0,39.0,-100.00,WNW,289,4.0,12.0,94,0.05,,,0.12,0.000000,,2013-10-13 08:52:00,
2013-10-13 04:02:00,41.0,39.0,-100.00,WNW,289,4.0,12.0,94,0.05,,,0.12,0.000000,,2013-10-13 09:02:00,
2013-10-13 04:43:00,41.0,39.0,-100.00,WNW,295,4.0,11.0,93,0.01,,,0.13,0.000000,,2013-10-13 09:43:00,
2013-10-13 04:53:00,41.0,39.0,-100.00,WNW,295,4.0,11.0,93,0.01,,,0.13,0.000000,,2013-10-13 09:53:00,
2013-10-13 05:03:00,41.0,39.0,-100.00,WNW,295,4.0,11.0,93,0.01,,,0.13,0.000000,,2013-10-13 10:03:00,
2013-10-13 05:43:00,40.0,38.0,-100.00,West,277,4.0,11.0,93,0.01,,,0.14,0.000000,,2013-10-13 10:43:00,
2013-10-13 05:53:00,40.0,38.0,-100.00,West,277,4.0,11.0,93,0.01,,,0.14,0.000000,,2013-10-13 10:53:00,
2013-10-13 06:03:00,40.0,38.0,-100.00,West,277,4.0,11.0,93,0.01,,,0.14,0.000000,,2013-10-13 11:03:00,
2013-10-13 06:22:00,38.0,36.0,-100.00,West,267,2.0,9.0,94,0.00,,,0.14,0.000000,,2013-10-13 11:22:00,
2013-10-13 06:33:00,38.0,36.0,-100.00,West,267,2.0,9.0,94,0.00,,,0.14,0.000000,,2013-10-13 11:33:00,
2013-10-13 06:42:00,38.0,36.0,-100.00,West,267,2.0,9.0,94,0.00,,,0.14,0.000000,,2013-10-13 11:42:00,
2013-10-13 06:52:00,38.0,36.0,-100.00,West,267,2.0,9.0,94,0.00,,,0.14,0.000000,,2013-10-13 11:52:00,
2013-10-13 07:01:00,38.0,36.0,-100.00,West,267,2.0,9.0,94,0.00,,,0.14,0.000000,,2013-10-13 12:01:00,
2013-10-13 07:42:00,35.0,33.0,-100.00,West,261,2.0,5.0,94,0.00,,,0.14,0.000000,,2013-10-13 12:42:00,
2013-10-13 07:52:00,35.0,33.0,-100.00,West,261,2.0,5.0,94,0.00,,,0.14,0.000000,,2013-10-13 12:52:00,
2013-10-13 08:02:00,35.0,33.0,-100.00,West,261,2.0,5.0,94,0.00,,,0.14,0.000000,,2013-10-13 13:02:00,
2013-10-13 08:42:00,35.0,34.0,-100.00,SW,231,3.0,5.0,95,0.01,,,0.15,13.000000,,2013-10-13 13:42:00,
2013-10-13 08:52:00,35.0,34.0,-100.00,SW,231,3.0,5.0,95,0.01,,,0.15,13.000000,,2013-10-13 13:52:00,
2013-10-13 09:02:00,35.0,34.0,-100.00,SW,231,3.0,5.0,95,0.01,,,0.15,13.000000,,2013-10-13 14:02:00,
2013-10-13 09:42:00,38.0,36.0,-100.00,WSW,239,2.0,5.0,94,0.00,,,0.15,131.000000,,2013-10-13 14:42:00,
2013-10-13 09:52:00,38.0,36.0,-100.00,WSW,239,2.0,5.0,94,0.00,,,0.15,131.000000,,2013-10-13 14:52:00,
2013-10-13 10:01:00,38.0,36.0,-100.00,WSW,239,2.0,5.0,94,0.00,,,0.15,131.000000,,2013-10-13 15:01:00,
2013-10-13 10:43:00,43.0,39.0,-100.00,West,260,5.0,10.0,86,0.00,,,0.15,346.000000,,2013-10-13 15:43:00,
2013-10-13 10:54:00,43.0,39.0,-100.00,West,260,5.0,10.0,86,0.00,,,0.15,346.000000,,2013-10-13 15:54:00,
2013-10-13 11:03:00,43.0,39.0,-100.00,West,260,5.0,10.0,86,0.00,,,0.15,346.000000,,2013-10-13 16:03:00,
2013-10-13 11:43:00,48.0,38.0,-100.00,WSW,257,5.0,11.0,68,0.00,,,0.15,505.000000,,2013-10-13 16:43:00,
2013-10-13 11:54:00,48.0,38.0,-100.00,WSW,257,5.0,11.0,68,0.00,,,0.15,505.000000,,2013-10-13 16:54:00,
2013-10-13 12:03:00,48.0,38.0,-100.00,WSW,257,5.0,11.0,68,0.00,,,0.15,505.000000,,2013-10-13 17:03:00,
2013-10-13 12:43:00,50.0,33.0,-100.00,WSW,254,7.0,14.0,51,0.00,,,0.15,584.000000,,2013-10-13 17:43:00,
2013-10-13 12:52:00,50.0,33.0,-100.00,WSW,254,7.0,14.0,51,0.00,,,0.15,584.000000,,2013-10-13 17:52:00,
2013-10-13 13:02:00,50.0,33.0,-100.00,WSW,254,7.0,14.0,51,0.00,,,0.15,584.000000,,2013-10-13 18:02:00,
2013-10-13 13:42:00,51.0,29.0,-100.00,WSW,258,7.0,16.0,43,0.00,,,0.15,593.000000,,2013-10-13 18:42:00,
2013-10-13 13:52:00,51.0,29.0,-100.00,WSW,258,7.0,16.0,43,0.00,,,0.15,593.000000,,2013-10-13 18:52:00,
2013-10-13 14:02:00,51.0,29.0,-100.00,WSW,258,7.0,16.0,43,0.00,,,0.15,593.000000,,2013-10-13 19:02:00,
2013-10-13 14:22:00,52.0,30.0,-100.00,West,264,7.0,17.0,42,0.00,,,0.15,508.000000,,2013-10-13 19:22:00,
2013-10-13 14:32:00,52.0,30.0,-100.00,West,264,7.0,17.0,42,0.00,,,0.15,508.000000,,2013-10-13 19:32:00,
2013-10-13 14:42:00,52.0,30.0,-100.00,West,264,7.0,17.0,42,0.00,,,0.15,508.000000,,2013-10-13 19:42:00,
2013-10-13 14:53:00,52.0,30.0,-100.00,West,264,7.0,17.0,42,0.00,,,0.15,508.000000,,2013-10-13 19:53:00,
2013-10-13 15:02:00,52.0,30.0,-100.00,West,264,7.0,17.0,42,0.00,,,0.15,508.000000,,2013-10-13 20:02:00,
2013-10-13 15:43:00,52.0,28.0,-100.00,West,261,7.0,15.0,40,0.00,,,0.15,170.000000,,2013-10-13 20:43:00,
2013-10-13 15:52:00,52.0,28.0,-100.00,West,261,7.0,15.0,40,0.00,,,0.15,170.000000,,2013-10-13 20:52:00,
2013-10-13 16:02:00,52.0,28.0,-100.00,West,261,7.0,15.0,40,0.00,,,0.15,170.000000,,2013-10-13 21:02:00,
2013-10-13 16:44:00,53.0,29.0,-100.00,West,261,6.0,15.0,40,0.00,,,0.15,237.000000,,2013-10-13 21:44:00,
2013-10-13 16:55:00,53.0,29.0,-100.00,West,261,6.0,15.0,40,0.00,,,0.15,237.000000,,2013-10-13 21:55:00,
2013-10-13 17:03:00,53.0,29.0,-100.00,West,261,6.0,15.0,40,0.00,,,0.15,237.000000,,2013-10-13 22:03:00,
2013-10-13 17:24:00,53.0,29.0,-100.00,WSW,255,5.0,13.0,40,0.00,,,0.15,267.000000,,2013-10-13 22:24:00,
2013-10-13 17:32:00,53.0,29.0,-100.00,WSW,255,5.0,13.0,40,0.00,,,0.15,267.000000,,2013-10-13 22:32:00,
2013-10-13 17:43:00,53.0,29.0,-100.00,WSW,255,5.0,13.0,40,0.00,,,0.15,267.000000,,2013-10-13 22:43:00,
2013-10-13 17:53:00,53.0,29.0,-100.00,WSW,255,5.0,13.0,40,0.00,,,0.15,267.000000,,2013-10-13 22:53:00,
2013-10-13 18:03:00,53.0,29.0,-100.00,WSW,255,5.0,13.0,40,0.00,,,0.15,267.000000,,2013-10-13 23:03:00,
2013-10-13 18:42:00,47.0,29.0,-100.00,West,262,3.0,10.0,49,0.00,,,0.15,57.000000,,2013-10-13 23:42:00,
2013-10-13 18:52:00,47.0,29.0,-100.00,West,262,3.0,10.0,49,0.00,,,0.15,57.000000,,2013-10-13 23:52:00,
2013-10-13 19:01:00,47.0,29.0,-100.00,West,262,3.0,10.0,49,0.00,,,0.15,57.000000,,2013-10-14 00:01:00,
2013-10-13 19:22:00,42.0,31.0,-100.00,WSW,252,3.0,6.0,64,0.00,,,0.14,6.000000,,2013-10-14 00:22:00,
2013-10-13 19:32:00,42.0,31.0,-100.00,WSW,252,3.0,6.0,64,0.00,,,0.14,6.000000,,2013-10-14 00:32:00,
2013-10-13 19:42:00,42.0,31.0,-100.00,WSW,252,3.0,6.0,64,0.00,,,0.14,6.000000,,2013-10-14 00:42:00,
2013-10-13 19:52:00,42.0,31.0,-100.00,WSW,252,3.0,6.0,64,0.00,,,0.14,6.000000,,2013-10-14 00:52:00,
2013-10-13 20:02:00,42.0,31.0,-100.00,WSW,252,3.0,6.0,64,0.00,,,0.14,6.000000,,2013-10-14 01:02:00,
2013-10-13 20:42:00,40.0,30.0,-100.00,WSW,252,2.0,4.0,68,0.00,,,0.14,0.000000,,2013-10-14 01:42:00,
2013-10-13 20:52:00,40.0,30.0,-100.00,WSW,252,2.0,4.0,68,0.00,,,0.14,0.000000,,2013-10-14 01:52:00,
2013-10-13 21:02:00,40.0,30.0,-100.00,WSW,252,2.0,4.0,68,0.00,,,0.14,0.000000,,2013-10-14 02:02:00,
2013-10-13 21:42:00,39.0,30.0,-100.00,WSW,250,2.0,4.0,70,0.00,,,0.13,0.000000,,2013-10-14 02:42:00,
2013-10-13 21:52:00,39.0,30.0,-100.00,WSW,250,2.0,4.0,70,0.00,,,0.13,0.000000,,2013-10-14 02:52:00,
2013-10-13 22:02:00,39.0,30.0,-100.00,WSW,250,2.0,4.0,70,0.00,,,0.13,0.000000,,2013-10-14 03:02:00,
2013-10-13 22:04:00,37.0,29.0,-100.00,WSW,238,2.0,4.0,72,0.00,,,0.13,0.000000,,2013-10-14 03:04:00,
2013-10-13 22:44:00,37.0,29.0,-100.00,WSW,238,2.0,4.0,72,0.00,,,0.13,0.000000,,2013-10-14 03:44:00,
2013-10-13 22:55:00,37.0,29.0,-100.00,WSW,238,2.0,4.0,72,0.00,,,0.13,0.000000,,2013-10-14 03:55:00,
2013-10-13 23:44:00,37.0,29.0,-100.00,SW,233,2.0,4.0,73,0.00,,,0.11,0.000000,,2013-10-14 04:44:00,
2013-10-13 23:54:00,37.0,29.0,-100.00,SW,233,2.0,4.0,73,0.00,,,0.11,0.000000,,2013-10-14 04:54:00,